• Join FlightAware (Why Join?)
  • Login
  • US Flag 
07:57AM EDT


 

Airport Tracker/Info


-or-


 

Live Flight TrackerFlight Track Log ✈ AWE131 ✈ 09-Apr-2013 ✈ KPHX - KLGB

Flight Track Log - Related Links

Times and Time Zones

All times are in EDT time to prevent confusion due to time zone crossing. See the AWE131 flight status page for this flight to view local times or setup timezone preferences in your user account.

Time Position Orientation Groundspeed Altitude Reporting Facility
EDT Latitude Longitude Course Direction KTS MPH feet Rate Location/Type
11:25PM 33.4333 -112.0333 273° West 145 167 2,200  Level Phoenix TRACON
11:26PM 33.4217 -112.0586 241° Southwest 165 190 3,000 2,040 Climbing Albuquerque Center
11:27PM 33.3947 -112.1292 245° Southwest 228 262 5,700 3,480 Climbing Albuquerque Center
11:28PM 33.4369 -112.4706 273° West  Level FlightAware Approximate
11:28PM 33.3619 -112.2314 249° West 271 312 10,200  Level Albuquerque Center
11:29PM 33.4417 -112.5881 273° West  Level FlightAware Approximate
11:29PM 33.3794 -112.3275 282° West 308 354 12,600  Level Albuquerque Center
11:30PM 33.4464 -112.7057 273° West  Level FlightAware Approximate
11:30PM 33.4111 -112.4306 290° West 327 376 15,700  Level Albuquerque Center
11:31PM 33.4414 -112.5383 289° West 339 390 18,200 2,520 Climbing Albuquerque Center
11:32PM 33.4517 -112.6622 276° West 363 418 20,900 2,220 Climbing Albuquerque Center
11:33PM 33.4531 -112.7869 271° West 374 430 22,800 1,800 Climbing Albuquerque Center
11:34PM 33.4719 -112.9153 280° West 393 452 24,700 1,800 Climbing Albuquerque Center
11:35PM 33.4956 -113.0439 282° West 397 457 26,600 1,680 Climbing Albuquerque Center
11:36PM 33.5206 -113.1758 283° West 402 463 28,200 1,620 Climbing Albuquerque Center
11:37PM 33.5508 -113.3364 283° West 407 468 29,900 1,380 Climbing Albuquerque Center
11:38PM 33.5769 -113.4742 283° West 416 479 31,100 960 Climbing Albuquerque Center
11:39PM 33.6039 -113.6131 283° West 424 488 31,900 420 Climbing Albuquerque Center
11:40PM 33.6306 -113.7603 282° West 440 506 32,000  Climbing Albuquerque Center
11:41PM 33.6567 -113.9017 283° West 437 503 32,000  Level Albuquerque Center
11:42PM 33.6831 -114.0444 283° West 439 505 32,000  Level Albuquerque Center
11:43PM 33.7089 -114.1861 282° West 437 503 32,000  Level Albuquerque Center
11:44PM 33.7331 -114.3258 282° West 438 504 32,000  Level Albuquerque Center
11:45PM 33.7597 -114.4647 283° West 432 497 32,000  Level Albuquerque Center
11:46PM 33.7806 -114.6525 278° West 436 502 32,000 -60 Level Los Angeles Center
11:47PM 33.7897 -114.7969 274° West 436 502 31,900 -60 Descending Los Angeles Center
11:48PM 33.7975 -114.9406 274° West 434 499 31,900  Level Los Angeles Center
11:49PM 33.8047 -115.0833 274° West 430 495 32,000  Climbing Los Angeles Center
11:50PM 33.8122 -115.2236 274° West 425 489 31,900  Descending Los Angeles Center
11:51PM 33.8208 -115.3925 274° West 424 488 32,000 -120 Climbing Los Angeles Center
11:52PM 33.8292 -115.5350 274° West 429 494 31,700 -840 Descending Los Angeles Center
11:53PM 33.8356 -115.6731 273° West 420 483 30,300 -1,320 Descending Los Angeles Center
11:54PM 33.8414 -115.8078 273° West 408 470 29,100 -1,080 Descending Los Angeles Center
11:55PM 33.8483 -115.9400 274° West 400 460 28,100 -2,100 Descending Los Angeles Center
11:56PM 33.8536 -116.0731 273° West 400 460 24,900 -2,640 Descending Los Angeles Center
11:57PM 33.8608 -116.2072 274° West 401 461 22,700 -2,040 Descending Los Angeles Center
11:59PM 33.8661 -116.3356 273° West 389 448 20,800 -2,160 Descending Los Angeles Center
12:00AM 33.8731 -116.4836 273° West 375 432 17,900 -2,220 Descending Los Angeles Center
12:01AM 33.8803 -116.6244 274° West 356 410 15,900 -1,740 Descending Los Angeles Center
12:02AM 33.8842 -116.7333 272° West 333 383 14,400 -960 Descending Los Angeles Center
12:03AM 33.8894 -116.8317 274° West 303 349 14,000 -600 Descending Los Angeles Center
12:04AM 33.8797 -116.9217 263° West 277 319 13,200 -900 Descending Los Angeles Center
12:05AM 33.8653 -117.0128 259° West 276 318 12,200 -1,020 Descending Los Angeles Center
12:06AM 33.8494 -117.1292 261° West 276 318 11,000 -1,020 Descending Los Angeles Center
12:07AM 33.8353 -117.2192 259° West 273 314 10,000 -1,020 Descending Los Angeles Center
12:08AM 33.8231 -117.3067 260° West 268 308 9,000 -960 Descending Los Angeles Center
12:09AM 33.8097 -117.3903 259° West 256 295 8,100 -540 Descending Los Angeles Center
12:10AM 33.7981 -117.4689 260° West 242 278 8,000 -60 Descending Los Angeles Center
12:11AM 33.7850 -117.5633 261° West 240 276 8,000 -240 Level Los Angeles Center
12:12AM 33.7667 -117.6333 253° West 253 291 7,600 -840 Descending Southern California TRACON
12:13AM 33.7333 -117.7000 239° Southwest 243 280 6,500 -900 Descending Southern California TRACON
12:14AM 33.7000 -117.7833 244° Southwest 217 250 5,800 -840 Descending Southern California TRACON
12:15AM 33.6833 -117.8333 248° West 197 227 4,800 -960 Descending Southern California TRACON
12:16AM 33.6667 -117.8833 248° West 178 205 4,000 -840 Descending Southern California TRACON
12:17AM 33.6667 -117.9500 270° West 167 192 3,200 -420 Descending Southern California TRACON
12:18AM 33.6833 -117.9833 301° West 157 181 3,200 -300 Level Southern California TRACON
12:19AM 33.7167 -118.0333 309° West 150 173 2,700 -660 Descending Southern California TRACON
12:20AM 33.7500 -118.0667 320° Northwest 148 170 1,900 -840 Descending Southern California TRACON
12:21AM 33.7667 -118.1000 301° West 129 148 1,100 -720 Descending Southern California TRACON
12:22AM 33.8000 -118.1167 337° Northwest 127 146 500 -660 Descending Southern California TRACON
12:22AM 33.8019 -118.1314 279° West 131 151 300 10,080 Descending Los Angeles Center
12:23AM 33.8247 -118.1594 314° West 130 150 14,000 13,200 Climbing Los Angeles Center